createdAt,value
2019-03-10T00:00:07.313Z,10.40
2019-03-10T00:02:35.258Z,10.48
2019-03-10T00:05:03.146Z,10.59
2019-03-10T00:07:32.057Z,10.50
2019-03-10T00:09:59.975Z,10.46
2019-03-10T00:12:27.899Z,10.39
2019-03-10T00:14:56.806Z,10.44
2019-03-10T00:17:24.698Z,10.52
2019-03-10T00:19:52.603Z,10.48
2019-03-10T00:22:20.504Z,10.33
2019-03-10T00:24:48.517Z,10.26
2019-03-10T00:27:17.416Z,10.36
2019-03-10T00:29:45.364Z,10.32
2019-03-10T00:32:13.314Z,10.32
2019-03-10T00:34:41.218Z,10.37
2019-03-10T00:37:09.207Z,10.22
2019-03-10T00:39:54.699Z,10.24
2019-03-10T00:42:29.135Z,10.21
2019-03-10T00:45:07.569Z,10.19
2019-03-10T00:47:52.875Z,10.13
2019-03-10T00:53:22.549Z,10.12
2019-03-10T00:55:50.512Z,10.06
2019-03-10T00:58:18.467Z,10.14
2019-03-10T01:00:46.365Z,10.02
2019-03-10T01:03:14.282Z,10.20
2019-03-10T01:05:42.186Z,10.07
2019-03-10T01:08:10.093Z,10.02
2019-03-10T01:10:37.997Z,10.10
2019-03-10T01:13:05.892Z,10.13
2019-03-10T01:15:34.799Z,10.14
2019-03-10T01:18:02.721Z,10.09
2019-03-10T01:20:30.611Z,9.94
2019-03-10T01:22:58.634Z,9.92
2019-03-10T01:25:26.528Z,9.92
2019-03-10T01:27:54.419Z,9.92
2019-03-10T01:30:22.328Z,10.02
2019-03-10T01:32:54.952Z,9.92
2019-03-10T01:35:22.851Z,10.08
2019-03-10T01:37:50.749Z,10.03
2019-03-10T01:40:18.652Z,9.96
2019-03-10T01:42:46.532Z,9.90
2019-03-10T01:45:16.394Z,9.98
2019-03-10T01:47:44.259Z,10.01
2019-03-10T01:50:12.214Z,10.06
2019-03-10T01:52:40.125Z,9.90
2019-03-10T01:55:08.119Z,9.86
2019-03-10T01:57:35.991Z,9.84
2019-03-10T02:00:03.889Z,9.81
2019-03-10T02:02:31.775Z,9.81
2019-03-10T02:04:59.718Z,9.77
2019-03-10T02:07:27.601Z,9.71
2019-03-10T02:09:55.491Z,9.65
2019-03-10T02:12:23.421Z,9.54
2019-03-10T02:14:51.329Z,9.66
2019-03-10T02:17:19.246Z,9.66
2019-03-10T02:19:47.170Z,9.80
2019-03-10T02:22:15.057Z,9.82
2019-03-10T02:24:42.974Z,9.66
2019-03-10T02:27:10.859Z,9.73
2019-03-10T02:29:38.786Z,9.70
2019-03-10T02:32:06.723Z,9.64
2019-03-10T02:34:35.600Z,9.64
2019-03-10T02:37:03.491Z,9.54
2019-03-10T02:39:31.388Z,9.49
2019-03-10T02:41:59.301Z,9.53
2019-03-10T02:44:27.209Z,9.55
2019-03-10T02:46:55.183Z,9.66
2019-03-10T02:49:23.106Z,9.81
2019-03-10T02:51:50.989Z,9.86
2019-03-10T02:54:18.931Z,9.92
2019-03-10T02:56:46.813Z,9.75
2019-03-10T02:59:14.701Z,9.76
2019-03-10T03:01:42.675Z,9.76
2019-03-10T03:04:10.598Z,9.75
2019-03-10T03:06:39.513Z,9.71
2019-03-10T03:09:07.396Z,9.78
2019-03-10T03:11:35.311Z,9.81
2019-03-10T03:14:03.186Z,9.89
2019-03-10T03:16:31.085Z,10.12
2019-03-10T03:18:59.007Z,10.51
2019-03-10T03:21:41.830Z,10.63
2019-03-10T03:23:54.879Z,10.70
2019-03-10T03:26:24.729Z,10.60
2019-03-10T03:28:52.675Z,10.32
2019-03-10T03:31:20.546Z,9.84
2019-03-10T03:33:48.421Z,9.32
2019-03-10T03:36:16.353Z,9.00
2019-03-10T03:38:45.118Z,8.77
2019-03-10T03:41:15.661Z,8.65
2019-03-10T03:43:43.557Z,8.54
2019-03-10T03:46:12.454Z,8.33
2019-03-10T03:48:41.334Z,8.21
2019-03-10T03:51:09.282Z,8.14
2019-03-10T03:53:38.156Z,8.16
2019-03-10T03:56:06.075Z,8.21
2019-03-10T03:58:34.001Z,8.14
2019-03-10T04:01:01.877Z,8.26
2019-03-10T04:03:29.779Z,8.23
2019-03-10T04:05:57.697Z,8.19
2019-03-10T04:08:25.591Z,8.20
2019-03-10T04:10:53.660Z,8.18
2019-03-10T04:13:21.571Z,8.15
2019-03-10T04:15:49.468Z,8.08
2019-03-10T04:18:17.390Z,7.93
2019-03-10T04:20:45.298Z,7.70
2019-03-10T04:23:13.177Z,7.48
2019-03-10T04:25:41.155Z,7.31
2019-03-10T04:28:09.056Z,7.13
2019-03-10T04:30:36.953Z,7.01
2019-03-10T04:33:04.855Z,6.98
2019-03-10T04:35:32.783Z,6.89
2019-03-10T04:38:00.670Z,6.76
2019-03-10T04:40:28.643Z,6.60
2019-03-10T04:42:56.547Z,6.52
2019-03-10T04:45:24.454Z,6.48
2019-03-10T04:47:52.351Z,6.47
2019-03-10T04:50:20.289Z,6.46
2019-03-10T04:52:48.195Z,6.51
2019-03-10T04:55:21.822Z,6.46
2019-03-10T04:57:55.671Z,6.47
2019-03-10T05:00:23.566Z,6.41
2019-03-10T05:02:51.466Z,6.45
2019-03-10T05:05:19.407Z,6.45
2019-03-10T05:07:47.363Z,6.45
2019-03-10T05:10:15.306Z,6.49
2019-03-10T05:12:43.195Z,6.52
2019-03-10T05:15:11.107Z,6.58
2019-03-10T05:17:39.019Z,6.64
2019-03-10T05:20:06.972Z,6.64
2019-03-10T05:22:34.852Z,6.57
2019-03-10T05:25:02.747Z,6.61
2019-03-10T05:27:30.666Z,6.59
2019-03-10T05:29:58.568Z,6.57
2019-03-10T05:32:26.658Z,6.58
2019-03-10T05:34:54.419Z,6.59
2019-03-10T05:37:22.314Z,6.75
2019-03-10T05:39:50.258Z,6.84
2019-03-10T05:42:18.157Z,6.89
2019-03-10T05:44:46.095Z,6.95
2019-03-10T05:47:13.959Z,7.03
2019-03-10T05:49:43.830Z,7.12
2019-03-10T05:52:11.816Z,7.10
2019-03-10T05:54:39.772Z,7.15
2019-03-10T05:57:08.539Z,7.00
2019-03-10T05:59:36.487Z,6.86
2019-03-10T06:02:05.360Z,6.78
2019-03-10T06:04:33.251Z,6.81
2019-03-10T06:07:01.254Z,6.92
2019-03-10T06:09:29.162Z,6.97
2019-03-10T06:11:57.031Z,7.02
2019-03-10T06:14:24.974Z,7.06
2019-03-10T06:16:52.878Z,7.15
2019-03-10T06:19:20.798Z,7.13
2019-03-10T06:21:48.697Z,7.15
2019-03-10T06:24:16.600Z,7.16
2019-03-10T06:26:44.502Z,7.16
2019-03-10T06:29:12.555Z,7.27
2019-03-10T06:31:40.451Z,7.26
2019-03-10T06:34:08.382Z,7.25
2019-03-10T06:36:36.267Z,7.28
2019-03-10T06:39:04.209Z,7.31
2019-03-10T06:41:32.082Z,7.30
2019-03-10T06:43:59.992Z,7.24
2019-03-10T06:46:27.897Z,7.28
2019-03-10T06:48:55.803Z,7.28
2019-03-10T06:51:23.787Z,7.36
2019-03-10T06:53:51.681Z,7.48
2019-03-10T06:56:19.614Z,7.56
2019-03-10T06:58:47.511Z,7.76
2019-03-10T07:01:15.416Z,7.82
2019-03-10T07:03:43.373Z,7.88
2019-03-10T07:06:12.310Z,8.02
2019-03-10T07:08:40.263Z,8.10
2019-03-10T07:11:08.172Z,8.18
2019-03-10T07:13:36.158Z,8.23
2019-03-10T07:16:04.184Z,8.41
2019-03-10T07:18:32.089Z,8.38
2019-03-10T07:21:01.109Z,8.43
2019-03-10T07:23:29.019Z,8.51
2019-03-10T07:26:02.570Z,8.63
2019-03-10T07:28:30.527Z,8.68
2019-03-10T07:30:59.882Z,8.85
2019-03-10T07:36:22.910Z,9.25
2019-03-10T07:38:52.272Z,9.41
2019-03-10T07:41:35.055Z,9.46
2019-03-10T07:44:07.519Z,9.58
2019-03-10T07:46:37.872Z,9.74
2019-03-10T07:52:04.592Z,10.11
2019-03-10T07:54:37.956Z,10.26
2019-03-10T07:57:21.747Z,10.55
2019-03-10T08:02:55.344Z,10.88
2019-03-10T08:05:28.102Z,11.05
2019-03-10T08:08:00.485Z,11.21
2019-03-10T08:10:31.322Z,11.27
2019-03-10T08:13:01.721Z,11.36
2019-03-10T08:15:44.527Z,11.44
2019-03-10T08:18:13.343Z,11.43
2019-03-10T08:20:41.260Z,11.55
2019-03-10T08:23:09.154Z,11.58
2019-03-10T08:28:30.056Z,11.71
2019-03-10T08:31:01.945Z,11.76
2019-03-10T08:33:30.341Z,11.71
2019-03-10T08:36:08.989Z,11.71
2019-03-10T08:41:38.544Z,11.75
2019-03-10T08:44:17.143Z,11.75
2019-03-10T08:46:45.950Z,11.83
2019-03-10T08:49:18.286Z,11.78
2019-03-10T08:52:02.066Z,11.77
2019-03-10T08:54:39.887Z,11.78
2019-03-10T08:57:07.840Z,11.72
2019-03-10T09:02:36.238Z,11.60
2019-03-10T09:05:07.656Z,11.65
2019-03-10T09:07:35.548Z,11.44
2019-03-10T09:10:09.837Z,11.41
2019-03-10T09:15:54.593Z,10.87
2019-03-10T09:18:25.030Z,10.79
2019-03-10T09:20:52.964Z,10.68
2019-03-10T09:23:25.191Z,10.62
2019-03-10T09:25:55.917Z,10.58
2019-03-10T09:28:29.384Z,10.60
2019-03-10T09:31:01.233Z,10.50
2019-03-10T09:33:31.489Z,10.51
2019-03-10T09:36:05.943Z,10.49
2019-03-10T09:38:33.838Z,10.46
2019-03-10T09:41:02.627Z,10.46
2019-03-10T09:43:30.537Z,10.52
2019-03-10T09:46:06.807Z,10.46
2019-03-10T09:48:37.071Z,10.45
2019-03-10T09:51:12.575Z,10.33
2019-03-10T09:53:46.152Z,10.21
2019-03-10T09:56:16.062Z,10.12
2019-03-10T09:58:50.385Z,10.09
2019-03-10T10:04:16.193Z,10.03
2019-03-10T10:06:49.033Z,9.98
2019-03-10T10:12:47.893Z,10.06
2019-03-10T10:15:16.790Z,10.05
2019-03-10T10:17:45.489Z,10.11
2019-03-10T10:20:13.892Z,10.08
2019-03-10T10:22:47.211Z,10.04
2019-03-10T10:25:16.672Z,10.01
2019-03-10T10:27:45.341Z,9.95
2019-03-10T10:33:12.835Z,9.94
2019-03-10T10:35:46.290Z,9.89
2019-03-10T10:38:20.670Z,9.91
2019-03-10T10:40:55.151Z,9.89
2019-03-10T10:43:28.730Z,9.90
2019-03-10T10:45:58.554Z,9.92
2019-03-10T10:48:26.805Z,9.99
2019-03-10T10:50:56.443Z,10.03
2019-03-10T10:53:24.361Z,10.13
2019-03-10T10:58:51.703Z,10.21
2019-03-10T11:04:18.285Z,10.22
2019-03-10T11:06:47.992Z,10.29
2019-03-10T11:09:25.797Z,10.35
2019-03-10T11:11:58.187Z,10.38
2019-03-10T11:14:26.559Z,10.30
2019-03-10T11:17:01.941Z,10.22
2019-03-10T11:19:33.762Z,10.27
2019-03-10T11:22:07.213Z,10.34
2019-03-10T11:24:37.579Z,10.49
2019-03-10T11:27:13.170Z,10.60
2019-03-10T11:29:51.788Z,10.70
2019-03-10T11:32:23.217Z,10.63
2019-03-10T11:35:02.015Z,10.61
2019-03-10T11:37:35.626Z,10.70
2019-03-10T11:43:11.364Z,11.09
2019-03-10T11:45:45.101Z,11.29
2019-03-10T11:48:16.940Z,11.37
2019-03-10T11:50:56.621Z,11.51
2019-03-10T11:53:30.224Z,11.69
2019-03-10T11:55:58.114Z,11.63
2019-03-10T11:58:29.873Z,11.59
2019-03-10T12:00:55.446Z,11.61
2019-03-10T12:03:34.124Z,11.49
2019-03-10T12:06:07.755Z,11.40
2019-03-10T12:08:36.451Z,11.26
2019-03-10T12:11:04.447Z,11.41
2019-03-10T12:13:32.455Z,11.62
2019-03-10T12:16:00.364Z,12.02
2019-03-10T12:18:28.396Z,12.27
2019-03-10T12:20:56.303Z,12.70
2019-03-10T12:23:24.211Z,12.79
2019-03-10T12:25:52.128Z,13.68
2019-03-10T12:28:20.360Z,13.78
2019-03-10T12:30:48.183Z,14.59
2019-03-10T12:33:16.108Z,14.17
2019-03-10T12:35:44.295Z,14.79
2019-03-10T12:38:13.147Z,14.65
2019-03-10T12:40:41.076Z,14.62
2019-03-10T12:43:08.981Z,14.21
2019-03-10T12:45:36.899Z,14.24
2019-03-10T12:48:05.723Z,14.02
2019-03-10T12:50:33.632Z,14.65
2019-03-10T12:53:01.541Z,14.84
2019-03-10T12:55:30.448Z,14.49
2019-03-10T12:58:00.256Z,15.10
2019-03-10T13:00:28.156Z,14.17
2019-03-10T13:02:56.944Z,14.18
2019-03-10T13:05:24.850Z,13.60
2019-03-10T13:07:52.797Z,13.43
2019-03-10T13:10:20.709Z,13.74
2019-03-10T13:12:48.675Z,14.43
2019-03-10T13:15:16.587Z,14.26
2019-03-10T13:17:44.484Z,14.12
2019-03-10T13:20:12.431Z,14.11
2019-03-10T13:22:41.357Z,14.26
2019-03-10T13:25:09.863Z,13.88
2019-03-10T13:27:37.775Z,13.72
2019-03-10T13:30:05.680Z,13.93
2019-03-10T13:32:33.585Z,14.14
2019-03-10T13:35:01.484Z,13.88
2019-03-10T13:37:29.383Z,15.02
2019-03-10T13:39:57.303Z,14.71
2019-03-10T13:42:25.247Z,14.57
2019-03-10T13:44:53.188Z,14.45
2019-03-10T13:47:22.110Z,14.43
2019-03-10T13:49:50.012Z,14.21
2019-03-10T13:52:18.894Z,14.28
2019-03-10T13:54:46.797Z,14.51
2019-03-10T13:57:14.710Z,14.94
2019-03-10T13:59:43.528Z,14.44
2019-03-10T14:02:11.472Z,14.77
2019-03-10T14:04:39.376Z,15.25
2019-03-10T14:07:07.311Z,15.41
2019-03-10T14:09:35.426Z,15.14
2019-03-10T14:12:03.345Z,14.24
2019-03-10T14:14:31.237Z,14.16
2019-03-10T14:16:59.160Z,14.54
2019-03-10T14:19:27.208Z,14.16
2019-03-10T14:21:55.109Z,14.12
2019-03-10T14:24:23.039Z,13.96
2019-03-10T14:26:50.968Z,13.89
2019-03-10T14:29:18.870Z,13.85
2019-03-10T14:31:48.724Z,13.73
2019-03-10T14:34:16.627Z,13.77
2019-03-10T14:36:45.439Z,13.73
2019-03-10T14:39:13.356Z,13.81
2019-03-10T14:41:42.151Z,13.65
2019-03-10T14:44:10.070Z,13.58
2019-03-10T14:46:38.920Z,13.45
2019-03-10T14:49:06.833Z,13.23
2019-03-10T14:51:35.678Z,13.27
2019-03-10T14:54:03.614Z,13.45
2019-03-10T14:56:31.550Z,13.51
2019-03-10T14:58:59.532Z,13.44
2019-03-10T15:01:27.460Z,13.57
2019-03-10T15:03:55.355Z,13.64
2019-03-10T15:06:23.264Z,13.55
2019-03-10T15:08:51.193Z,13.52
2019-03-10T15:11:19.168Z,13.54
2019-03-10T15:13:48.083Z,13.51
2019-03-10T15:16:16.949Z,13.31
2019-03-10T15:18:44.852Z,13.06
2019-03-10T15:21:12.765Z,12.83
2019-03-10T15:23:40.673Z,12.95
2019-03-10T15:26:08.581Z,13.14
2019-03-10T15:28:36.500Z,13.11
2019-03-10T15:31:04.478Z,13.30
2019-03-10T15:33:32.403Z,13.45
2019-03-10T15:36:00.300Z,13.59
2019-03-10T15:38:28.203Z,13.20
2019-03-10T15:40:56.105Z,13.03
2019-03-10T15:43:24.018Z,12.87
2019-03-10T15:45:51.919Z,12.85
2019-03-10T15:48:19.896Z,12.67
2019-03-10T15:50:47.785Z,12.78
2019-03-10T15:53:15.697Z,13.00
2019-03-10T15:55:43.592Z,13.00
2019-03-10T15:58:11.503Z,12.85
2019-03-10T16:00:39.417Z,12.72
2019-03-10T16:03:07.325Z,12.76
2019-03-10T16:05:35.235Z,12.81
2019-03-10T16:08:03.155Z,12.83
2019-03-10T16:10:31.066Z,12.78
2019-03-10T16:12:58.992Z,12.78
2019-03-10T16:15:27.927Z,12.75
2019-03-10T16:17:55.841Z,12.69
2019-03-10T16:20:23.788Z,12.68
2019-03-10T16:22:51.705Z,12.61
2019-03-10T16:25:19.601Z,12.65
2019-03-10T16:27:49.735Z,12.61
2019-03-10T16:30:16.284Z,12.54
2019-03-10T16:32:44.192Z,12.49
2019-03-10T16:35:12.091Z,12.43
2019-03-10T16:37:43.706Z,12.25
2019-03-10T16:40:12.411Z,12.18
2019-03-10T16:42:46.093Z,12.17
2019-03-10T16:45:23.187Z,12.05
2019-03-10T16:47:51.090Z,12.08
2019-03-10T16:50:18.979Z,12.06
2019-03-10T16:52:47.908Z,12.02
2019-03-10T16:55:15.828Z,11.91
2019-03-10T16:57:43.736Z,12.05
2019-03-10T17:00:11.693Z,11.88
2019-03-10T17:02:39.566Z,11.86
2019-03-10T17:05:16.064Z,11.73
2019-03-10T17:07:44.509Z,11.72
2019-03-10T17:10:15.134Z,11.76
2019-03-10T17:12:43.940Z,11.62
2019-03-10T17:15:15.638Z,11.33
2019-03-10T17:17:45.461Z,11.11
2019-03-10T17:20:17.124Z,11.07
2019-03-10T17:22:45.929Z,11.08
2019-03-10T17:25:14.637Z,11.00
2019-03-10T17:27:42.566Z,10.90
2019-03-10T17:30:11.122Z,10.92
2019-03-10T17:32:39.024Z,10.96
2019-03-10T17:35:06.934Z,11.08
2019-03-10T17:37:38.631Z,10.90
2019-03-10T17:40:06.541Z,10.96
2019-03-10T17:42:34.556Z,11.15
2019-03-10T17:45:03.495Z,11.07
2019-03-10T17:47:31.396Z,11.12
2019-03-10T17:49:59.309Z,11.13
2019-03-10T17:52:27.325Z,11.07
2019-03-10T17:54:55.607Z,11.05
2019-03-10T17:57:23.480Z,10.99
2019-03-10T17:59:52.359Z,10.96
2019-03-10T18:02:20.284Z,11.02
2019-03-10T18:04:48.211Z,10.92
2019-03-10T18:07:16.213Z,10.88
2019-03-10T18:09:44.166Z,10.88
2019-03-10T18:12:12.083Z,10.96
2019-03-10T18:14:40.107Z,10.97
2019-03-10T18:17:08.029Z,10.98
2019-03-10T18:19:35.908Z,10.77
2019-03-10T18:22:04.744Z,10.70
2019-03-10T18:24:32.731Z,10.60
2019-03-10T18:27:00.656Z,10.50
2019-03-10T18:29:28.585Z,10.56
2019-03-10T18:31:57.379Z,10.48
2019-03-10T18:34:25.315Z,10.28
2019-03-10T18:36:53.212Z,10.18
2019-03-10T18:39:22.184Z,10.21
2019-03-10T18:41:50.093Z,10.06
2019-03-10T18:44:18.018Z,10.12
2019-03-10T18:46:45.904Z,9.94
2019-03-10T18:49:13.796Z,10.02
2019-03-10T18:51:41.868Z,10.02
2019-03-10T18:54:09.767Z,9.90
2019-03-10T18:56:42.745Z,9.84
2019-03-10T18:59:10.640Z,9.94
2019-03-10T19:01:38.576Z,9.88
2019-03-10T19:04:07.569Z,9.80
2019-03-10T19:06:35.465Z,9.71
2019-03-10T19:09:05.286Z,9.86
2019-03-10T19:11:33.330Z,9.82
2019-03-10T19:14:01.219Z,9.79
2019-03-10T19:16:29.116Z,9.63
2019-03-10T19:18:57.036Z,9.60
2019-03-10T19:21:24.924Z,9.70
2019-03-10T19:23:52.824Z,9.53
2019-03-10T19:26:20.779Z,9.48
2019-03-10T19:28:48.672Z,9.51
2019-03-10T19:31:16.603Z,9.48
2019-03-10T19:33:44.503Z,9.49
2019-03-10T19:36:12.420Z,9.38
2019-03-10T19:38:40.301Z,9.20
2019-03-10T19:41:08.304Z,9.38
2019-03-10T19:43:36.180Z,9.23
2019-03-10T19:46:08.872Z,9.22
2019-03-10T19:48:36.777Z,9.18
2019-03-10T19:51:04.679Z,9.06
2019-03-10T19:53:32.691Z,8.99
2019-03-10T19:56:03.868Z,9.04
2019-03-10T19:58:29.459Z,9.01
2019-03-10T20:00:57.387Z,8.90
2019-03-10T20:03:27.162Z,8.76
2019-03-10T20:05:55.055Z,8.86
2019-03-10T20:08:23.068Z,8.84
2019-03-10T20:10:51.059Z,8.75
2019-03-10T20:13:19.035Z,8.82
2019-03-10T20:15:46.956Z,8.64
2019-03-10T20:18:14.881Z,8.72
2019-03-10T20:20:42.852Z,8.75
2019-03-10T20:23:11.800Z,8.83
2019-03-10T20:25:39.683Z,8.94
2019-03-10T20:28:09.375Z,8.77
2019-03-10T20:30:35.568Z,8.92
2019-03-10T20:33:03.506Z,9.02
2019-03-10T20:35:34.487Z,8.97
2019-03-10T20:38:02.383Z,9.13
2019-03-10T20:40:30.283Z,9.09
2019-03-10T20:42:58.208Z,9.11
2019-03-10T20:45:26.217Z,9.09
2019-03-10T20:47:56.480Z,9.13
2019-03-10T20:50:23.023Z,9.14
2019-03-10T20:52:51.061Z,9.02
2019-03-10T20:55:19.000Z,8.95
2019-03-10T20:57:46.921Z,9.03
2019-03-10T21:00:18.843Z,9.01
2019-03-10T21:02:46.817Z,9.00
2019-03-10T21:05:14.788Z,8.96
2019-03-10T21:07:42.755Z,8.46
2019-03-10T21:10:19.055Z,8.25
2019-03-10T21:12:47.019Z,8.01
2019-03-10T21:15:15.005Z,7.82
2019-03-10T21:17:42.844Z,7.72
2019-03-10T21:20:11.328Z,7.66
2019-03-10T21:22:39.305Z,7.67
2019-03-10T21:25:10.006Z,7.52
2019-03-10T21:27:38.591Z,7.53
2019-03-10T21:30:09.675Z,7.58
2019-03-10T21:32:37.665Z,7.49
2019-03-10T21:35:16.833Z,7.50
2019-03-10T21:37:33.663Z,7.42
2019-03-10T21:40:01.569Z,7.24
2019-03-10T21:42:30.598Z,6.99
2019-03-10T21:44:59.468Z,6.87
2019-03-10T21:47:27.375Z,6.53
2019-03-10T21:49:55.386Z,6.10
2019-03-10T21:52:24.122Z,5.84
2019-03-10T21:54:52.099Z,5.75
2019-03-10T21:57:19.995Z,5.78
2019-03-10T21:59:47.932Z,5.75
2019-03-10T22:02:16.913Z,5.79
2019-03-10T22:04:44.770Z,5.85
2019-03-10T22:07:12.672Z,5.84
2019-03-10T22:09:40.663Z,5.86
2019-03-10T22:12:08.575Z,5.83
2019-03-10T22:14:36.491Z,5.87
2019-03-10T22:17:04.388Z,5.88
2019-03-10T22:19:32.284Z,5.97
2019-03-10T22:22:00.205Z,5.97
2019-03-10T22:24:28.175Z,5.96
2019-03-10T22:26:56.046Z,5.89
2019-03-10T22:29:25.880Z,5.90
2019-03-10T22:31:53.753Z,5.86
2019-03-10T22:34:22.547Z,5.84
2019-03-10T22:36:50.598Z,5.91
2019-03-10T22:39:21.584Z,5.91
2019-03-10T22:41:49.491Z,6.00
2019-03-10T22:44:17.389Z,6.02
2019-03-10T22:46:45.272Z,6.02
2019-03-10T22:49:15.077Z,5.90
2019-03-10T22:51:42.973Z,5.89
2019-03-10T22:54:10.887Z,5.81
2019-03-10T22:56:39.455Z,5.82
2019-03-10T22:59:08.308Z,5.74
2019-03-10T23:01:36.207Z,5.73
2019-03-10T23:04:04.102Z,5.64
2019-03-10T23:06:32.011Z,5.72
2019-03-10T23:09:00.000Z,5.71
2019-03-10T23:11:27.903Z,5.70
2019-03-10T23:13:55.822Z,5.78
2019-03-10T23:16:25.807Z,5.80
2019-03-10T23:18:53.884Z,5.78
2019-03-10T23:21:21.881Z,5.74
2019-03-10T23:23:49.807Z,5.57
2019-03-10T23:26:17.719Z,5.43
2019-03-10T23:28:45.633Z,5.29
2019-03-10T23:31:14.541Z,5.25
2019-03-10T23:33:42.442Z,5.01
2019-03-10T23:36:10.336Z,4.78
2019-03-10T23:38:38.227Z,4.75
2019-03-10T23:41:06.266Z,4.76
2019-03-10T23:43:34.183Z,4.61
2019-03-10T23:46:02.047Z,4.56
2019-03-10T23:48:29.952Z,4.47
2019-03-10T23:50:57.938Z,4.56
2019-03-10T23:53:25.823Z,4.56
2019-03-10T23:55:53.712Z,4.59
2019-03-10T23:58:25.741Z,4.51
